sensor_id;sensor_type;location;lat;lon;timestamp;P1;durP1;ratioP1;P2;durP2;ratioP2
76863;SDS011;65834;52.364;9.754;2023-10-08T00:01:51;0.20;;;0.20;;
76863;SDS011;65834;52.364;9.754;2023-10-08T00:04:22;0.45;;;0.10;;
76863;SDS011;65834;52.364;9.754;2023-10-08T00:06:53;1.42;;;0.55;;
76863;SDS011;65834;52.364;9.754;2023-10-08T00:09:22;0.25;;;0.20;;
76863;SDS011;65834;52.364;9.754;2023-10-08T00:11:52;0.20;;;0.20;;
76863;SDS011;65834;52.364;9.754;2023-10-08T00:14:25;0.30;;;0.30;;
76863;SDS011;65834;52.364;9.754;2023-10-08T00:16:54;0.32;;;0.32;;
76863;SDS011;65834;52.364;9.754;2023-10-08T00:19:24;0.40;;;0.20;;
76863;SDS011;65834;52.364;9.754;2023-10-08T00:22:01;0.20;;;0.20;;
76863;SDS011;65834;52.364;9.754;2023-10-08T00:24:32;0.40;;;0.10;;
76863;SDS011;65834;52.364;9.754;2023-10-08T00:27:02;0.75;;;0.32;;
76863;SDS011;65834;52.364;9.754;2023-10-08T00:29:35;0.43;;;0.20;;
76863;SDS011;65834;52.364;9.754;2023-10-08T00:32:09;0.38;;;0.20;;
76863;SDS011;65834;52.364;9.754;2023-10-08T00:34:55;0.10;;;0.10;;
76863;SDS011;65834;52.364;9.754;2023-10-08T00:37:25;1.35;;;0.50;;
76863;SDS011;65834;52.364;9.754;2023-10-08T00:39:55;0.10;;;0.10;;
76863;SDS011;65834;52.364;9.754;2023-10-08T00:42:28;0.10;;;0.10;;
76863;SDS011;65834;52.364;9.754;2023-10-08T00:45:00;0.28;;;0.20;;
76863;SDS011;65834;52.364;9.754;2023-10-08T00:47:31;0.20;;;0.20;;
76863;SDS011;65834;52.364;9.754;2023-10-08T00:50:08;1.00;;;0.38;;
76863;SDS011;65834;52.364;9.754;2023-10-08T00:52:46;1.95;;;0.30;;
76863;SDS011;65834;52.364;9.754;2023-10-08T00:55:28;0.68;;;0.20;;
76863;SDS011;65834;52.364;9.754;2023-10-08T00:58:00;0.20;;;0.20;;
76863;SDS011;65834;52.364;9.754;2023-10-08T01:00:38;0.25;;;0.22;;
76863;SDS011;65834;52.364;9.754;2023-10-08T01:03:09;0.57;;;0.40;;
76863;SDS011;65834;52.364;9.754;2023-10-08T01:05:46;0.57;;;0.30;;
76863;SDS011;65834;52.364;9.754;2023-10-08T01:08:16;0.30;;;0.30;;
76863;SDS011;65834;52.364;9.754;2023-10-08T01:10:59;0.55;;;0.30;;
76863;SDS011;65834;52.364;9.754;2023-10-08T01:13:30;0.60;;;0.28;;
76863;SDS011;65834;52.364;9.754;2023-10-08T01:16:12;0.70;;;0.22;;
76863;SDS011;65834;52.364;9.754;2023-10-08T01:18:42;1.50;;;0.50;;
76863;SDS011;65834;52.364;9.754;2023-10-08T01:21:17;2.30;;;0.60;;
76863;SDS011;65834;52.364;9.754;2023-10-08T01:24:04;4.63;;;0.70;;
76863;SDS011;65834;52.364;9.754;2023-10-08T01:26:35;3.97;;;0.77;;
76863;SDS011;65834;52.364;9.754;2023-10-08T01:29:08;2.85;;;0.70;;
76863;SDS011;65834;52.364;9.754;2023-10-08T01:31:46;3.13;;;0.60;;
76863;SDS011;65834;52.364;9.754;2023-10-08T01:34:16;4.97;;;0.90;;
76863;SDS011;65834;52.364;9.754;2023-10-08T01:36:53;2.15;;;0.88;;
76863;SDS011;65834;52.364;9.754;2023-10-08T01:39:25;4.43;;;0.82;;
76863;SDS011;65834;52.364;9.754;2023-10-08T01:41:58;3.90;;;0.80;;
76863;SDS011;65834;52.364;9.754;2023-10-08T01:44:29;3.45;;;0.68;;
76863;SDS011;65834;52.364;9.754;2023-10-08T01:47:02;3.85;;;0.80;;
76863;SDS011;65834;52.364;9.754;2023-10-08T01:49:32;5.50;;;0.90;;
76863;SDS011;65834;52.364;9.754;2023-10-08T01:52:04;4.53;;;0.70;;
76863;SDS011;65834;52.364;9.754;2023-10-08T01:54:42;2.73;;;0.77;;
76863;SDS011;65834;52.364;9.754;2023-10-08T01:57:12;3.85;;;0.68;;
76863;SDS011;65834;52.364;9.754;2023-10-08T01:59:41;2.65;;;0.75;;
76863;SDS011;65834;52.364;9.754;2023-10-08T02:02:12;3.47;;;0.68;;
76863;SDS011;65834;52.364;9.754;2023-10-08T02:04:42;6.80;;;1.05;;
76863;SDS011;65834;52.364;9.754;2023-10-08T02:07:11;2.38;;;0.90;;
76863;SDS011;65834;52.364;9.754;2023-10-08T02:09:44;3.58;;;0.75;;
76863;SDS011;65834;52.364;9.754;2023-10-08T02:12:15;3.28;;;0.80;;
76863;SDS011;65834;52.364;9.754;2023-10-08T02:14:44;4.72;;;0.80;;
76863;SDS011;65834;52.364;9.754;2023-10-08T02:17:15;4.45;;;1.27;;
76863;SDS011;65834;52.364;9.754;2023-10-08T02:19:46;3.72;;;1.02;;
76863;SDS011;65834;52.364;9.754;2023-10-08T02:22:15;5.17;;;1.00;;
76863;SDS011;65834;52.364;9.754;2023-10-08T02:24:48;5.22;;;1.20;;
76863;SDS011;65834;52.364;9.754;2023-10-08T02:27:19;4.30;;;1.77;;
76863;SDS011;65834;52.364;9.754;2023-10-08T02:29:49;5.75;;;1.13;;
76863;SDS011;65834;52.364;9.754;2023-10-08T02:32:19;5.93;;;1.17;;
76863;SDS011;65834;52.364;9.754;2023-10-08T02:34:49;3.92;;;0.88;;
76863;SDS011;65834;52.364;9.754;2023-10-08T02:37:20;4.75;;;1.00;;
76863;SDS011;65834;52.364;9.754;2023-10-08T02:39:52;4.03;;;1.05;;
76863;SDS011;65834;52.364;9.754;2023-10-08T02:42:24;3.55;;;1.42;;
76863;SDS011;65834;52.364;9.754;2023-10-08T02:44:53;2.43;;;0.97;;
76863;SDS011;65834;52.364;9.754;2023-10-08T02:47:27;5.35;;;1.13;;
76863;SDS011;65834;52.364;9.754;2023-10-08T02:49:59;2.33;;;0.90;;
76863;SDS011;65834;52.364;9.754;2023-10-08T02:52:33;5.40;;;1.30;;
76863;SDS011;65834;52.364;9.754;2023-10-08T02:55:06;4.95;;;0.98;;
76863;SDS011;65834;52.364;9.754;2023-10-08T02:57:50;3.60;;;0.90;;
76863;SDS011;65834;52.364;9.754;2023-10-08T03:00:20;2.72;;;0.73;;
76863;SDS011;65834;52.364;9.754;2023-10-08T03:02:56;5.00;;;1.35;;
76863;SDS011;65834;52.364;9.754;2023-10-08T03:05:31;2.33;;;1.00;;
76863;SDS011;65834;52.364;9.754;2023-10-08T03:08:03;2.10;;;0.90;;
76863;SDS011;65834;52.364;9.754;2023-10-08T03:10:40;8.23;;;1.48;;
76863;SDS011;65834;52.364;9.754;2023-10-08T03:13:10;5.15;;;0.93;;
76863;SDS011;65834;52.364;9.754;2023-10-08T03:15:42;1.40;;;0.93;;
76863;SDS011;65834;52.364;9.754;2023-10-08T03:18:25;3.97;;;0.90;;
76863;SDS011;65834;52.364;9.754;2023-10-08T03:21:02;7.97;;;1.50;;
76863;SDS011;65834;52.364;9.754;2023-10-08T03:23:50;2.78;;;1.10;;
76863;SDS011;65834;52.364;9.754;2023-10-08T03:26:27;3.70;;;0.75;;
76863;SDS011;65834;52.364;9.754;2023-10-08T03:29:05;6.90;;;0.90;;
76863;SDS011;65834;52.364;9.754;2023-10-08T03:31:36;5.18;;;1.85;;
76863;SDS011;65834;52.364;9.754;2023-10-08T03:34:21;3.33;;;0.90;;
76863;SDS011;65834;52.364;9.754;2023-10-08T03:37:00;2.33;;;0.80;;
76863;SDS011;65834;52.364;9.754;2023-10-08T03:39:34;1.85;;;0.85;;
76863;SDS011;65834;52.364;9.754;2023-10-08T03:42:22;2.30;;;0.50;;
76863;SDS011;65834;52.364;9.754;2023-10-08T03:44:52;5.75;;;1.10;;
76863;SDS011;65834;52.364;9.754;2023-10-08T03:47:22;2.60;;;0.90;;
76863;SDS011;65834;52.364;9.754;2023-10-08T03:49:53;2.70;;;0.93;;
76863;SDS011;65834;52.364;9.754;2023-10-08T03:52:23;4.25;;;0.90;;
76863;SDS011;65834;52.364;9.754;2023-10-08T03:54:53;4.10;;;1.02;;
76863;SDS011;65834;52.364;9.754;2023-10-08T03:57:34;4.57;;;0.70;;
76863;SDS011;65834;52.364;9.754;2023-10-08T04:00:15;4.67;;;0.73;;
76863;SDS011;65834;52.364;9.754;2023-10-08T04:02:55;2.97;;;0.90;;
76863;SDS011;65834;52.364;9.754;2023-10-08T04:05:27;2.40;;;0.70;;
76863;SDS011;65834;52.364;9.754;2023-10-08T04:08:11;3.17;;;0.80;;
76863;SDS011;65834;52.364;9.754;2023-10-08T04:10:51;5.22;;;0.77;;
76863;SDS011;65834;52.364;9.754;2023-10-08T04:13:36;2.92;;;0.82;;
76863;SDS011;65834;52.364;9.754;2023-10-08T04:16:15;2.30;;;0.63;;
76863;SDS011;65834;52.364;9.754;2023-10-08T04:18:46;5.38;;;0.77;;
76863;SDS011;65834;52.364;9.754;2023-10-08T04:21:17;4.50;;;0.88;;
76863;SDS011;65834;52.364;9.754;2023-10-08T04:23:47;3.70;;;1.23;;
76863;SDS011;65834;52.364;9.754;2023-10-08T04:26:20;3.80;;;1.02;;
76863;SDS011;65834;52.364;9.754;2023-10-08T04:28:53;2.35;;;0.65;;
76863;SDS011;65834;52.364;9.754;2023-10-08T04:31:25;4.32;;;0.93;;
76863;SDS011;65834;52.364;9.754;2023-10-08T04:34:03;6.25;;;1.15;;
76863;SDS011;65834;52.364;9.754;2023-10-08T04:36:37;3.13;;;0.90;;
76863;SDS011;65834;52.364;9.754;2023-10-08T04:39:07;2.53;;;0.90;;
76863;SDS011;65834;52.364;9.754;2023-10-08T04:41:42;5.22;;;0.95;;
76863;SDS011;65834;52.364;9.754;2023-10-08T04:44:17;5.38;;;0.98;;
76863;SDS011;65834;52.364;9.754;2023-10-08T04:46:48;3.17;;;0.90;;
76863;SDS011;65834;52.364;9.754;2023-10-08T04:49:19;5.13;;;0.88;;
76863;SDS011;65834;52.364;9.754;2023-10-08T04:52:00;4.00;;;2.10;;
76863;SDS011;65834;52.364;9.754;2023-10-08T04:54:35;5.15;;;0.90;;
76863;SDS011;65834;52.364;9.754;2023-10-08T04:57:07;5.53;;;1.02;;
76863;SDS011;65834;52.364;9.754;2023-10-08T04:59:44;3.30;;;0.73;;
76863;SDS011;65834;52.364;9.754;2023-10-08T05:02:17;3.38;;;0.80;;
76863;SDS011;65834;52.364;9.754;2023-10-08T05:07:42;5.75;;;0.90;;
76863;SDS011;65834;52.364;9.754;2023-10-08T05:10:24;8.90;;;1.33;;
76863;SDS011;65834;52.364;9.754;2023-10-08T05:13:12;4.65;;;1.00;;
76863;SDS011;65834;52.364;9.754;2023-10-08T05:15:45;6.50;;;1.65;;
76863;SDS011;65834;52.364;9.754;2023-10-08T05:18:29;3.23;;;0.80;;
76863;SDS011;65834;52.364;9.754;2023-10-08T05:21:21;5.68;;;1.10;;
76863;SDS011;65834;52.364;9.754;2023-10-08T05:24:07;4.35;;;1.00;;
76863;SDS011;65834;52.364;9.754;2023-10-08T05:26:40;3.88;;;1.02;;
76863;SDS011;65834;52.364;9.754;2023-10-08T05:29:26;4.05;;;0.95;;
76863;SDS011;65834;52.364;9.754;2023-10-08T05:32:21;3.92;;;0.95;;
76863;SDS011;65834;52.364;9.754;2023-10-08T05:35:18;4.37;;;1.07;;
76863;SDS011;65834;52.364;9.754;2023-10-08T05:38:16;5.20;;;1.13;;
76863;SDS011;65834;52.364;9.754;2023-10-08T05:41:05;5.03;;;1.20;;
76863;SDS011;65834;52.364;9.754;2023-10-08T05:43:43;6.87;;;1.30;;
76863;SDS011;65834;52.364;9.754;2023-10-08T05:46:41;5.90;;;1.17;;
76863;SDS011;65834;52.364;9.754;2023-10-08T05:49:26;4.90;;;1.25;;
76863;SDS011;65834;52.364;9.754;2023-10-08T05:52:05;3.13;;;1.13;;
76863;SDS011;65834;52.364;9.754;2023-10-08T05:54:52;5.60;;;1.15;;
76863;SDS011;65834;52.364;9.754;2023-10-08T05:57:34;6.50;;;0.80;;
76863;SDS011;65834;52.364;9.754;2023-10-08T06:00:13;7.05;;;1.77;;
76863;SDS011;65834;52.364;9.754;2023-10-08T06:02:58;6.63;;;1.50;;
76863;SDS011;65834;52.364;9.754;2023-10-08T06:06:02;6.63;;;1.40;;
76863;SDS011;65834;52.364;9.754;2023-10-08T06:08:45;1.90;;;0.82;;
76863;SDS011;65834;52.364;9.754;2023-10-08T06:11:19;7.10;;;2.33;;
76863;SDS011;65834;52.364;9.754;2023-10-08T06:14:08;5.63;;;1.60;;
76863;SDS011;65834;52.364;9.754;2023-10-08T06:16:54;4.00;;;1.23;;
76863;SDS011;65834;52.364;9.754;2023-10-08T06:19:40;7.00;;;1.50;;
76863;SDS011;65834;52.364;9.754;2023-10-08T06:22:12;5.13;;;1.65;;
76863;SDS011;65834;52.364;9.754;2023-10-08T06:24:42;6.05;;;1.45;;
76863;SDS011;65834;52.364;9.754;2023-10-08T06:27:11;6.03;;;1.53;;
76863;SDS011;65834;52.364;9.754;2023-10-08T06:29:43;3.42;;;1.27;;
76863;SDS011;65834;52.364;9.754;2023-10-08T06:32:13;5.40;;;1.20;;
76863;SDS011;65834;52.364;9.754;2023-10-08T06:34:45;5.05;;;1.10;;
76863;SDS011;65834;52.364;9.754;2023-10-08T06:37:17;6.03;;;1.52;;
76863;SDS011;65834;52.364;9.754;2023-10-08T06:39:47;5.63;;;1.30;;
76863;SDS011;65834;52.364;9.754;2023-10-08T06:42:17;5.70;;;1.40;;
76863;SDS011;65834;52.364;9.754;2023-10-08T06:44:46;7.03;;;1.90;;
76863;SDS011;65834;52.364;9.754;2023-10-08T06:47:16;4.43;;;1.30;;
76863;SDS011;65834;52.364;9.754;2023-10-08T06:49:48;5.43;;;1.50;;
76863;SDS011;65834;52.364;9.754;2023-10-08T06:52:20;7.35;;;1.65;;
76863;SDS011;65834;52.364;9.754;2023-10-08T06:54:53;5.00;;;1.42;;
76863;SDS011;65834;52.364;9.754;2023-10-08T06:57:22;4.70;;;1.40;;
76863;SDS011;65834;52.364;9.754;2023-10-08T06:59:53;4.47;;;1.58;;
76863;SDS011;65834;52.364;9.754;2023-10-08T07:02:22;6.45;;;1.50;;
76863;SDS011;65834;52.364;9.754;2023-10-08T07:04:53;4.83;;;1.60;;
76863;SDS011;65834;52.364;9.754;2023-10-08T07:07:25;9.75;;;1.92;;
76863;SDS011;65834;52.364;9.754;2023-10-08T07:09:58;9.80;;;2.97;;
76863;SDS011;65834;52.364;9.754;2023-10-08T07:12:29;7.80;;;2.03;;
76863;SDS011;65834;52.364;9.754;2023-10-08T07:15:02;5.80;;;1.92;;
76863;SDS011;65834;52.364;9.754;2023-10-08T07:17:38;6.70;;;1.80;;
76863;SDS011;65834;52.364;9.754;2023-10-08T07:20:10;7.38;;;2.50;;
76863;SDS011;65834;52.364;9.754;2023-10-08T07:22:44;5.88;;;2.03;;
76863;SDS011;65834;52.364;9.754;2023-10-08T07:25:20;5.47;;;1.90;;
76863;SDS011;65834;52.364;9.754;2023-10-08T07:27:50;9.02;;;1.90;;
76863;SDS011;65834;52.364;9.754;2023-10-08T07:30:20;5.68;;;1.65;;
76863;SDS011;65834;52.364;9.754;2023-10-08T07:32:53;8.82;;;1.90;;
76863;SDS011;65834;52.364;9.754;2023-10-08T07:35:24;9.73;;;2.30;;
76863;SDS011;65834;52.364;9.754;2023-10-08T07:37:59;5.85;;;2.65;;
76863;SDS011;65834;52.364;9.754;2023-10-08T07:40:35;6.88;;;1.55;;
76863;SDS011;65834;52.364;9.754;2023-10-08T07:43:04;8.20;;;2.13;;
76863;SDS011;65834;52.364;9.754;2023-10-08T07:45:35;10.43;;;4.95;;
76863;SDS011;65834;52.364;9.754;2023-10-08T07:48:05;6.78;;;2.00;;
76863;SDS011;65834;52.364;9.754;2023-10-08T07:50:40;9.07;;;2.28;;
76863;SDS011;65834;52.364;9.754;2023-10-08T07:53:14;6.70;;;2.28;;
76863;SDS011;65834;52.364;9.754;2023-10-08T07:55:47;5.15;;;2.10;;
76863;SDS011;65834;52.364;9.754;2023-10-08T07:58:17;5.88;;;2.25;;
76863;SDS011;65834;52.364;9.754;2023-10-08T08:00:47;9.30;;;2.85;;
76863;SDS011;65834;52.364;9.754;2023-10-08T08:03:20;10.07;;;2.45;;
76863;SDS011;65834;52.364;9.754;2023-10-08T08:05:51;6.10;;;2.45;;
76863;SDS011;65834;52.364;9.754;2023-10-08T08:08:24;7.20;;;2.78;;
76863;SDS011;65834;52.364;9.754;2023-10-08T08:10:54;8.68;;;2.70;;
76863;SDS011;65834;52.364;9.754;2023-10-08T08:13:30;8.63;;;2.80;;
76863;SDS011;65834;52.364;9.754;2023-10-08T08:16:00;8.68;;;2.95;;
76863;SDS011;65834;52.364;9.754;2023-10-08T08:18:43;6.95;;;2.75;;
76863;SDS011;65834;52.364;9.754;2023-10-08T08:21:13;10.25;;;3.03;;
76863;SDS011;65834;52.364;9.754;2023-10-08T08:23:46;9.27;;;2.92;;
76863;SDS011;65834;52.364;9.754;2023-10-08T08:26:17;9.98;;;4.50;;
76863;SDS011;65834;52.364;9.754;2023-10-08T08:29:03;8.10;;;2.53;;
76863;SDS011;65834;52.364;9.754;2023-10-08T08:31:35;8.20;;;2.42;;
76863;SDS011;65834;52.364;9.754;2023-10-08T08:34:05;6.22;;;2.28;;
76863;SDS011;65834;52.364;9.754;2023-10-08T08:36:44;7.30;;;3.92;;
76863;SDS011;65834;52.364;9.754;2023-10-08T08:39:18;5.80;;;2.78;;
76863;SDS011;65834;52.364;9.754;2023-10-08T08:41:59;8.70;;;2.65;;
76863;SDS011;65834;52.364;9.754;2023-10-08T08:44:31;9.47;;;2.90;;
76863;SDS011;65834;52.364;9.754;2023-10-08T08:47:02;11.47;;;3.13;;
76863;SDS011;65834;52.364;9.754;2023-10-08T08:49:34;7.25;;;2.55;;
76863;SDS011;65834;52.364;9.754;2023-10-08T08:52:06;6.82;;;2.58;;
76863;SDS011;65834;52.364;9.754;2023-10-08T08:54:38;7.75;;;2.20;;
76863;SDS011;65834;52.364;9.754;2023-10-08T08:59:41;7.55;;;2.85;;
76863;SDS011;65834;52.364;9.754;2023-10-08T09:02:16;8.65;;;2.60;;
76863;SDS011;65834;52.364;9.754;2023-10-08T09:04:47;8.45;;;2.88;;
76863;SDS011;65834;52.364;9.754;2023-10-08T09:07:21;10.30;;;3.00;;
76863;SDS011;65834;52.364;9.754;2023-10-08T09:09:55;10.63;;;3.50;;
76863;SDS011;65834;52.364;9.754;2023-10-08T09:12:26;6.47;;;2.15;;
76863;SDS011;65834;52.364;9.754;2023-10-08T09:15:00;8.88;;;1.88;;
76863;SDS011;65834;52.364;9.754;2023-10-08T09:17:39;7.57;;;2.40;;
76863;SDS011;65834;52.364;9.754;2023-10-08T09:20:09;7.93;;;2.70;;
76863;SDS011;65834;52.364;9.754;2023-10-08T09:22:39;8.35;;;2.50;;
76863;SDS011;65834;52.364;9.754;2023-10-08T09:25:11;5.47;;;2.17;;
76863;SDS011;65834;52.364;9.754;2023-10-08T09:27:41;8.35;;;2.38;;
76863;SDS011;65834;52.364;9.754;2023-10-08T09:30:13;8.82;;;2.53;;
76863;SDS011;65834;52.364;9.754;2023-10-08T09:35:20;6.20;;;2.58;;
76863;SDS011;65834;52.364;9.754;2023-10-08T09:37:53;8.15;;;2.55;;
76863;SDS011;65834;52.364;9.754;2023-10-08T09:40:26;6.93;;;2.17;;
76863;SDS011;65834;52.364;9.754;2023-10-08T09:42:56;17.80;;;5.20;;
76863;SDS011;65834;52.364;9.754;2023-10-08T09:45:25;9.13;;;2.33;;
76863;SDS011;65834;52.364;9.754;2023-10-08T09:47:56;4.53;;;1.35;;
76863;SDS011;65834;52.364;9.754;2023-10-08T09:50:33;6.00;;;1.50;;
76863;SDS011;65834;52.364;9.754;2023-10-08T09:53:08;6.50;;;1.80;;
76863;SDS011;65834;52.364;9.754;2023-10-08T09:55:48;6.28;;;1.65;;
76863;SDS011;65834;52.364;9.754;2023-10-08T09:58:22;7.68;;;1.50;;
76863;SDS011;65834;52.364;9.754;2023-10-08T10:00:54;6.97;;;1.70;;
76863;SDS011;65834;52.364;9.754;2023-10-08T10:03:25;6.13;;;1.77;;
76863;SDS011;65834;52.364;9.754;2023-10-08T10:05:55;4.55;;;1.70;;
76863;SDS011;65834;52.364;9.754;2023-10-08T10:08:28;7.30;;;1.60;;
76863;SDS011;65834;52.364;9.754;2023-10-08T10:11:05;6.28;;;1.83;;
76863;SDS011;65834;52.364;9.754;2023-10-08T10:13:38;5.90;;;1.52;;
76863;SDS011;65834;52.364;9.754;2023-10-08T10:16:09;5.93;;;1.52;;
76863;SDS011;65834;52.364;9.754;2023-10-08T10:18:43;6.05;;;1.90;;
76863;SDS011;65834;52.364;9.754;2023-10-08T10:21:24;5.55;;;1.48;;
76863;SDS011;65834;52.364;9.754;2023-10-08T10:23:55;8.98;;;1.88;;
76863;SDS011;65834;52.364;9.754;2023-10-08T10:26:28;3.58;;;1.10;;
76863;SDS011;65834;52.364;9.754;2023-10-08T10:31:53;8.23;;;1.52;;
76863;SDS011;65834;52.364;9.754;2023-10-08T10:34:25;8.35;;;1.20;;
76863;SDS011;65834;52.364;9.754;2023-10-08T10:36:58;9.55;;;1.50;;
76863;SDS011;65834;52.364;9.754;2023-10-08T10:39:35;7.15;;;1.33;;
76863;SDS011;65834;52.364;9.754;2023-10-08T10:42:11;8.45;;;1.50;;
76863;SDS011;65834;52.364;9.754;2023-10-08T10:44:48;5.72;;;1.15;;
76863;SDS011;65834;52.364;9.754;2023-10-08T10:47:20;7.25;;;1.85;;
76863;SDS011;65834;52.364;9.754;2023-10-08T10:49:53;5.40;;;1.50;;
76863;SDS011;65834;52.364;9.754;2023-10-08T10:52:43;8.43;;;1.92;;
76863;SDS011;65834;52.364;9.754;2023-10-08T10:55:19;5.07;;;1.30;;
76863;SDS011;65834;52.364;9.754;2023-10-08T10:58:01;7.20;;;1.40;;
76863;SDS011;65834;52.364;9.754;2023-10-08T11:00:41;5.55;;;1.60;;
76863;SDS011;65834;52.364;9.754;2023-10-08T11:03:24;7.07;;;1.60;;
76863;SDS011;65834;52.364;9.754;2023-10-08T11:05:52;11.23;;;2.22;;
76863;SDS011;65834;52.364;9.754;2023-10-08T11:08:27;9.48;;;2.10;;
76863;SDS011;65834;52.364;9.754;2023-10-08T11:11:02;5.80;;;1.80;;
76863;SDS011;65834;52.364;9.754;2023-10-08T11:13:39;7.65;;;1.50;;
76863;SDS011;65834;52.364;9.754;2023-10-08T11:16:09;5.88;;;1.65;;
76863;SDS011;65834;52.364;9.754;2023-10-08T11:18:43;6.50;;;1.70;;
76863;SDS011;65834;52.364;9.754;2023-10-08T11:21:17;6.88;;;1.30;;
76863;SDS011;65834;52.364;9.754;2023-10-08T11:23:51;5.05;;;1.58;;
76863;SDS011;65834;52.364;9.754;2023-10-08T11:26:23;5.30;;;1.48;;
76863;SDS011;65834;52.364;9.754;2023-10-08T11:29:04;7.72;;;1.55;;
76863;SDS011;65834;52.364;9.754;2023-10-08T11:31:41;5.72;;;1.45;;
76863;SDS011;65834;52.364;9.754;2023-10-08T11:34:11;8.95;;;1.63;;
76863;SDS011;65834;52.364;9.754;2023-10-08T11:36:52;5.00;;;1.45;;
76863;SDS011;65834;52.364;9.754;2023-10-08T11:39:22;8.10;;;1.85;;
76863;SDS011;65834;52.364;9.754;2023-10-08T11:41:57;5.97;;;1.30;;
76863;SDS011;65834;52.364;9.754;2023-10-08T11:44:44;6.88;;;1.60;;
76863;SDS011;65834;52.364;9.754;2023-10-08T11:47:14;5.82;;;1.40;;
76863;SDS011;65834;52.364;9.754;2023-10-08T11:49:48;5.97;;;1.70;;
76863;SDS011;65834;52.364;9.754;2023-10-08T11:52:24;8.48;;;2.25;;
76863;SDS011;65834;52.364;9.754;2023-10-08T11:54:54;6.47;;;1.50;;
76863;SDS011;65834;52.364;9.754;2023-10-08T11:57:24;8.43;;;1.67;;
76863;SDS011;65834;52.364;9.754;2023-10-08T12:00:00;8.88;;;2.05;;
76863;SDS011;65834;52.364;9.754;2023-10-08T12:02:57;6.13;;;1.70;;
76863;SDS011;65834;52.364;9.754;2023-10-08T12:05:29;5.13;;;1.40;;
76863;SDS011;65834;52.364;9.754;2023-10-08T12:08:01;5.47;;;1.33;;
76863;SDS011;65834;52.364;9.754;2023-10-08T12:10:34;4.25;;;1.10;;
76863;SDS011;65834;52.364;9.754;2023-10-08T12:13:04;5.47;;;1.48;;
76863;SDS011;65834;52.364;9.754;2023-10-08T12:15:39;9.32;;;1.75;;
76863;SDS011;65834;52.364;9.754;2023-10-08T12:18:10;7.60;;;1.60;;
76863;SDS011;65834;52.364;9.754;2023-10-08T12:20:51;6.90;;;1.52;;
76863;SDS011;65834;52.364;9.754;2023-10-08T12:23:21;8.13;;;1.65;;
76863;SDS011;65834;52.364;9.754;2023-10-08T12:25:55;6.22;;;1.50;;
76863;SDS011;65834;52.364;9.754;2023-10-08T12:28:26;5.90;;;1.25;;
76863;SDS011;65834;52.364;9.754;2023-10-08T12:30:59;7.00;;;1.52;;
76863;SDS011;65834;52.364;9.754;2023-10-08T12:33:30;11.07;;;1.67;;
76863;SDS011;65834;52.364;9.754;2023-10-08T12:36:01;6.82;;;1.60;;
76863;SDS011;65834;52.364;9.754;2023-10-08T12:38:38;8.45;;;1.83;;
76863;SDS011;65834;52.364;9.754;2023-10-08T12:41:10;5.13;;;1.35;;
76863;SDS011;65834;52.364;9.754;2023-10-08T12:43:41;7.97;;;1.83;;
76863;SDS011;65834;52.364;9.754;2023-10-08T12:46:14;6.05;;;1.30;;
76863;SDS011;65834;52.364;9.754;2023-10-08T12:48:51;7.53;;;1.83;;
76863;SDS011;65834;52.364;9.754;2023-10-08T12:51:22;3.80;;;1.30;;
76863;SDS011;65834;52.364;9.754;2023-10-08T12:53:58;4.63;;;1.38;;
76863;SDS011;65834;52.364;9.754;2023-10-08T12:56:30;10.95;;;2.38;;
76863;SDS011;65834;52.364;9.754;2023-10-08T12:59:06;4.05;;;1.50;;
76863;SDS011;65834;52.364;9.754;2023-10-08T13:01:49;5.63;;;1.50;;
76863;SDS011;65834;52.364;9.754;2023-10-08T13:04:22;7.30;;;1.92;;
76863;SDS011;65834;52.364;9.754;2023-10-08T13:06:56;6.32;;;1.60;;
76863;SDS011;65834;52.364;9.754;2023-10-08T13:09:28;4.47;;;1.40;;
76863;SDS011;65834;52.364;9.754;2023-10-08T13:12:04;6.82;;;1.60;;
76863;SDS011;65834;52.364;9.754;2023-10-08T13:14:36;4.72;;;1.42;;
76863;SDS011;65834;52.364;9.754;2023-10-08T13:17:15;4.57;;;1.30;;
76863;SDS011;65834;52.364;9.754;2023-10-08T13:19:45;7.45;;;1.30;;
76863;SDS011;65834;52.364;9.754;2023-10-08T13:22:15;7.25;;;1.95;;
76863;SDS011;65834;52.364;9.754;2023-10-08T13:24:46;7.63;;;1.50;;
76863;SDS011;65834;52.364;9.754;2023-10-08T13:27:16;5.80;;;1.27;;
76863;SDS011;65834;52.364;9.754;2023-10-08T13:29:45;6.75;;;1.75;;
76863;SDS011;65834;52.364;9.754;2023-10-08T13:32:18;5.95;;;1.80;;
76863;SDS011;65834;52.364;9.754;2023-10-08T13:34:48;5.65;;;1.30;;
76863;SDS011;65834;52.364;9.754;2023-10-08T13:37:17;5.72;;;1.25;;
76863;SDS011;65834;52.364;9.754;2023-10-08T13:39:47;5.38;;;1.70;;
76863;SDS011;65834;52.364;9.754;2023-10-08T13:42:16;6.63;;;1.48;;
76863;SDS011;65834;52.364;9.754;2023-10-08T13:44:47;5.28;;;1.55;;
76863;SDS011;65834;52.364;9.754;2023-10-08T13:47:20;5.70;;;1.73;;
76863;SDS011;65834;52.364;9.754;2023-10-08T13:49:52;6.25;;;1.60;;
76863;SDS011;65834;52.364;9.754;2023-10-08T13:52:24;5.80;;;1.58;;
76863;SDS011;65834;52.364;9.754;2023-10-08T13:54:54;6.13;;;1.40;;
76863;SDS011;65834;52.364;9.754;2023-10-08T13:57:27;5.15;;;2.05;;
76863;SDS011;65834;52.364;9.754;2023-10-08T13:59:59;7.13;;;1.42;;
76863;SDS011;65834;52.364;9.754;2023-10-08T14:02:41;6.40;;;1.58;;
76863;SDS011;65834;52.364;9.754;2023-10-08T14:05:11;3.28;;;1.02;;
76863;SDS011;65834;52.364;9.754;2023-10-08T14:07:41;5.15;;;1.30;;
76863;SDS011;65834;52.364;9.754;2023-10-08T14:10:15;6.88;;;1.48;;
76863;SDS011;65834;52.364;9.754;2023-10-08T14:12:46;4.75;;;1.45;;
76863;SDS011;65834;52.364;9.754;2023-10-08T14:15:17;4.95;;;1.10;;
76863;SDS011;65834;52.364;9.754;2023-10-08T14:17:52;9.52;;;1.65;;
76863;SDS011;65834;52.364;9.754;2023-10-08T14:20:25;6.07;;;1.38;;
76863;SDS011;65834;52.364;9.754;2023-10-08T14:22:58;7.65;;;1.40;;
76863;SDS011;65834;52.364;9.754;2023-10-08T14:25:30;7.07;;;1.50;;
76863;SDS011;65834;52.364;9.754;2023-10-08T14:28:07;3.13;;;1.10;;
76863;SDS011;65834;52.364;9.754;2023-10-08T14:30:51;5.38;;;1.27;;
76863;SDS011;65834;52.364;9.754;2023-10-08T14:33:26;6.95;;;1.50;;
76863;SDS011;65834;52.364;9.754;2023-10-08T14:35:59;6.43;;;1.10;;
76863;SDS011;65834;52.364;9.754;2023-10-08T14:38:41;5.50;;;1.17;;
76863;SDS011;65834;52.364;9.754;2023-10-08T14:41:24;5.13;;;1.35;;
76863;SDS011;65834;52.364;9.754;2023-10-08T14:44:06;4.47;;;1.05;;
76863;SDS011;65834;52.364;9.754;2023-10-08T14:46:35;3.78;;;1.30;;
76863;SDS011;65834;52.364;9.754;2023-10-08T14:49:08;5.15;;;1.15;;
76863;SDS011;65834;52.364;9.754;2023-10-08T14:51:39;8.30;;;1.58;;
76863;SDS011;65834;52.364;9.754;2023-10-08T14:54:09;7.10;;;1.23;;
76863;SDS011;65834;52.364;9.754;2023-10-08T14:56:40;5.18;;;1.30;;
76863;SDS011;65834;52.364;9.754;2023-10-08T14:59:10;8.10;;;1.30;;
76863;SDS011;65834;52.364;9.754;2023-10-08T15:01:41;6.82;;;1.48;;
76863;SDS011;65834;52.364;9.754;2023-10-08T15:04:16;6.25;;;1.42;;
76863;SDS011;65834;52.364;9.754;2023-10-08T15:06:46;6.32;;;1.73;;
76863;SDS011;65834;52.364;9.754;2023-10-08T15:09:16;5.13;;;1.42;;
76863;SDS011;65834;52.364;9.754;2023-10-08T15:11:50;4.97;;;1.50;;
76863;SDS011;65834;52.364;9.754;2023-10-08T15:14:20;8.52;;;1.60;;
76863;SDS011;65834;52.364;9.754;2023-10-08T15:16:51;4.45;;;1.45;;
76863;SDS011;65834;52.364;9.754;2023-10-08T15:19:24;8.82;;;1.45;;
76863;SDS011;65834;52.364;9.754;2023-10-08T15:21:55;7.72;;;1.73;;
76863;SDS011;65834;52.364;9.754;2023-10-08T15:24:25;6.38;;;1.60;;
76863;SDS011;65834;52.364;9.754;2023-10-08T15:26:56;4.57;;;1.30;;
76863;SDS011;65834;52.364;9.754;2023-10-08T15:29:30;7.80;;;1.77;;
76863;SDS011;65834;52.364;9.754;2023-10-08T15:32:00;4.80;;;1.40;;
76863;SDS011;65834;52.364;9.754;2023-10-08T15:34:32;7.40;;;2.03;;
76863;SDS011;65834;52.364;9.754;2023-10-08T15:37:06;5.88;;;1.48;;
76863;SDS011;65834;52.364;9.754;2023-10-08T15:39:36;6.05;;;1.48;;
76863;SDS011;65834;52.364;9.754;2023-10-08T15:42:07;6.03;;;1.50;;